Time;durP1;ratioP1;P1;durP2;ratioP2;P2;SDS_P1;SDS_P2;PMS_P1;PMS_P2;Temp;Humidity;BMP_temperature;BMP_pressure;BME280_temperature;BME280_humidity;BME280_pressure;Samples;Min_cycle;Max_cycle;Signal;HPM_P1;HPM_P2
2023/03/10 05:01:33;;;;;;;1.88;1.77;;;1.10;99.90;;;;;;5380733;23;20277;-69
2023/03/10 05:04:00;;;;;;;1.48;1.48;;;1.20;99.90;;;;;;4890246;29;20563;-68
2023/03/10 05:06:27;;;;;;;0.73;0.73;;;1.20;99.90;;;;;;4895180;29;20215;-70
2023/03/10 05:08:54;;;;;;;1.13;0.95;;;1.10;99.90;;;;;;4884828;29;20222;-69
2023/03/10 05:11:21;;;;;;;2.80;2.67;;;1.20;99.90;;;;;;4888542;29;20233;-70
2023/03/10 05:13:47;;;;;;;4.80;1.05;;;1.20;99.90;;;;;;4889827;29;20612;-69
2023/03/10 05:16:16;;;;;;;3.22;3.13;;;1.20;99.90;;;;;;4894311;29;20219;-68
2023/03/10 05:18:44;;;;;;;2.08;1.98;;;1.10;99.90;;;;;;4883729;29;20208;-68
2023/03/10 05:21:11;;;;;;;2.22;2.13;;;1.10;99.90;;;;;;4893658;29;20246;-69
2023/03/10 05:23:38;;;;;;;3.42;3.03;;;1.10;99.90;;;;;;4880119;29;20559;-70
2023/03/10 05:26:06;;;;;;;2.72;2.63;;;1.10;99.90;;;;;;4891590;29;20227;-69
2023/03/10 05:28:32;;;;;;;1.98;1.73;;;1.20;99.90;;;;;;4882724;29;20215;-69
2023/03/10 05:30:59;;;;;;;4.13;3.05;;;1.10;99.90;;;;;;4894393;29;20231;-69
2023/03/10 05:33:26;;;;;;;2.15;2.08;;;1.10;99.90;;;;;;4883509;29;20597;-69
2023/03/10 05:35:54;;;;;;;3.65;2.97;;;1.10;99.90;;;;;;4886806;29;20234;-69
2023/03/10 05:38:21;;;;;;;11.65;3.25;;;1.10;99.90;;;;;;4887815;29;20564;-69
2023/03/10 05:40:48;;;;;;;1.33;1.33;;;1.20;99.90;;;;;;4887294;29;20342;-69
2023/03/10 05:43:14;;;;;;;4.53;4.32;;;1.10;99.90;;;;;;4894382;29;20217;-70
2023/03/10 05:45:41;;;;;;;1.75;1.75;;;1.10;99.90;;;;;;4891114;29;20223;-69
2023/03/10 05:48:08;;;;;;;6.75;3.05;;;1.10;99.90;;;;;;4893488;29;20219;-70
2023/03/10 05:50:34;;;;;;;1.95;1.75;;;1.10;99.90;;;;;;4881751;29;20224;-70
2023/03/10 05:53:02;;;;;;;1.98;1.88;;;1.10;99.90;;;;;;4893102;29;20211;-70
2023/03/10 05:55:30;;;;;;;2.60;1.00;;;1.10;99.90;;;;;;4892139;29;20528;-70
2023/03/10 05:57:56;;;;;;;2.55;2.53;;;1.10;99.90;;;;;;4879755;29;20563;-69
2023/03/10 06:00:24;;;;;;;4.20;4.03;;;1.10;99.90;;;;;;4890905;29;20234;-69
2023/03/10 06:02:50;;;;;;;6.80;3.53;;;1.10;99.90;;;;;;4892305;29;20210;-69
2023/03/10 06:05:17;;;;;;;0.70;0.70;;;1.10;99.90;;;;;;4893119;29;20227;-70
2023/03/10 06:07:44;;;;;;;1.63;1.58;;;1.20;99.90;;;;;;4887616;29;20218;-69
2023/03/10 06:10:13;;;;;;;3.70;3.20;;;1.10;99.90;;;;;;4894412;29;20688;-70
2023/03/10 06:12:39;;;;;;;2.42;2.33;;;1.20;99.90;;;;;;4881163;29;20212;-70
2023/03/10 06:15:07;;;;;;;1.40;0.47;;;1.20;99.90;;;;;;4879524;29;20216;-69
2023/03/10 06:17:34;;;;;;;2.90;2.80;;;1.20;99.90;;;;;;4880490;29;20211;-68
2023/03/10 06:20:01;;;;;;;4.25;3.90;;;1.20;99.90;;;;;;4885627;29;20649;-68
2023/03/10 06:22:27;;;;;;;3.80;3.47;;;1.10;99.90;;;;;;4883987;29;20303;-68
2023/03/10 06:24:54;;;;;;;4.43;1.23;;;1.20;99.90;;;;;;4889835;29;20615;-69
2023/03/10 06:27:22;;;;;;;1.63;1.63;;;1.20;99.90;;;;;;4892557;29;20219;-68
2023/03/10 06:29:49;;;;;;;3.38;2.47;;;1.20;99.90;;;;;;4881981;29;20584;-68
2023/03/10 06:32:16;;;;;;;2.80;2.80;;;1.20;99.90;;;;;;4885265;29;20378;-68
2023/03/10 06:34:42;;;;;;;1.25;1.25;;;1.20;99.90;;;;;;4884232;29;20204;-67
2023/03/10 06:37:09;;;;;;;3.08;2.13;;;1.20;99.90;;;;;;4890796;29;20235;-67
2023/03/10 06:39:38;;;;;;;2.45;2.15;;;1.20;99.90;;;;;;4882882;29;20216;-67
2023/03/10 06:42:05;;;;;;;5.65;2.58;;;1.20;99.90;;;;;;4893998;29;20261;-67
2023/03/10 06:44:33;;;;;;;1.42;1.33;;;1.20;99.90;;;;;;4889125;29;20215;-67
2023/03/10 06:47:03;;;;;;;3.92;3.17;;;1.20;99.90;;;;;;4893805;29;20207;-68
2023/03/10 06:49:31;;;;;;;1.95;1.85;;;1.20;99.90;;;;;;4892511;29;20299;-66
2023/03/10 06:51:58;;;;;;;2.22;2.13;;;1.20;99.90;;;;;;4898455;29;20227;-67
2023/03/10 06:54:25;;;;;;;0.55;0.55;;;1.30;99.90;;;;;;4889691;29;20227;-68
2023/03/10 06:56:51;;;;;;;0.68;0.68;;;1.30;99.90;;;;;;4885942;29;20216;-67
2023/03/10 06:59:18;;;;;;;2.60;2.35;;;1.30;99.90;;;;;;4894936;29;20296;-68
2023/03/10 07:01:46;;;;;;;4.60;4.40;;;1.30;99.90;;;;;;4891783;29;20235;-68
2023/03/10 07:04:13;;;;;;;7.05;2.90;;;1.30;99.90;;;;;;4882569;29;20220;-67
2023/03/10 07:06:39;;;;;;;1.75;1.75;;;1.30;99.90;;;;;;4891163;29;20588;-67
2023/03/10 07:09:06;;;;;;;2.75;2.60;;;1.30;99.90;;;;;;4893790;29;20218;-67
2023/03/10 07:11:33;;;;;;;4.47;3.20;;;1.40;99.90;;;;;;4889482;29;20767;-68
2023/03/10 07:14:00;;;;;;;1.33;0.70;;;1.40;99.90;;;;;;4882340;29;20215;-68
2023/03/10 07:16:26;;;;;;;5.57;4.65;;;1.40;99.90;;;;;;4881312;29;20208;-68
2023/03/10 07:18:54;;;;;;;4.60;3.35;;;1.40;99.90;;;;;;4892792;29;20645;-68
2023/03/10 07:21:21;;;;;;;4.38;1.77;;;1.40;99.90;;;;;;4889238;29;20246;-71
2023/03/10 07:23:48;;;;;;;1.63;1.52;;;1.40;99.90;;;;;;4889622;29;20212;-68
2023/03/10 07:26:17;;;;;;;1.92;1.88;;;1.40;99.90;;;;;;4893601;29;20290;-68
2023/03/10 07:28:45;;;;;;;1.25;1.25;;;1.40;99.90;;;;;;4886996;29;20255;-68
2023/03/10 07:31:13;;;;;;;1.98;1.88;;;1.40;99.90;;;;;;4889728;29;20243;-67
2023/03/10 07:33:40;;;;;;;1.95;1.85;;;1.40;99.90;;;;;;4885012;29;20212;-67
2023/03/10 07:36:12;;;;;;;2.50;2.08;;;1.40;99.90;;;;;;4891648;29;20247;-68
2023/03/10 07:38:38;;;;;;;3.65;2.03;;;1.40;99.90;;;;;;4889321;29;20271;-67
2023/03/10 07:41:09;;;;;;;3.92;3.00;;;1.40;99.90;;;;;;4896697;29;20234;-67
2023/03/10 07:43:37;;;;;;;0.47;0.47;;;1.40;99.90;;;;;;4887935;29;20215;-67
2023/03/10 07:46:07;;;;;;;2.92;1.80;;;1.40;99.90;;;;;;4890043;29;20232;-67
2023/03/10 07:48:34;;;;;;;2.90;1.73;;;1.40;99.90;;;;;;4887447;29;20216;-67
2023/03/10 07:51:01;;;;;;;3.80;3.55;;;1.40;99.90;;;;;;4894034;29;20234;-67
2023/03/10 07:53:30;;;;;;;2.30;1.58;;;1.40;99.90;;;;;;4892522;29;20235;-68
2023/03/10 07:55:56;;;;;;;4.13;2.05;;;1.50;99.90;;;;;;4895028;29;20204;-68
2023/03/10 07:58:24;;;;;;;3.20;2.55;;;1.50;99.90;;;;;;4895413;29;20219;-67
2023/03/10 08:00:54;;;;;;;1.98;1.85;;;1.50;99.90;;;;;;4890853;29;20716;-68
2023/03/10 08:03:21;;;;;;;6.97;2.67;;;1.50;99.90;;;;;;4888596;29;20314;-67
2023/03/10 08:05:48;;;;;;;2.58;2.58;;;1.50;99.90;;;;;;4894485;29;20231;-68
2023/03/10 08:08:15;;;;;;;3.45;3.25;;;1.40;99.90;;;;;;4887279;29;20207;-68
2023/03/10 08:10:43;;;;;;;2.50;2.40;;;1.50;99.90;;;;;;4885739;29;20228;-68
2023/03/10 08:13:10;;;;;;;1.77;1.75;;;1.50;99.90;;;;;;4887990;29;20274;-68
2023/03/10 08:15:38;;;;;;;4.03;1.20;;;1.50;99.90;;;;;;4887323;29;20664;-68
2023/03/10 08:18:06;;;;;;;1.02;1.02;;;1.50;99.90;;;;;;4890260;29;20211;-68
2023/03/10 08:20:33;;;;;;;0.77;0.77;;;1.50;99.90;;;;;;4891880;29;20231;-68
2023/03/10 08:23:00;;;;;;;1.50;1.50;;;1.50;99.90;;;;;;4886887;29;20286;-68
2023/03/10 08:25:27;;;;;;;9.18;5.28;;;1.60;99.90;;;;;;4883254;29;20721;-67
2023/03/10 08:27:55;;;;;;;2.40;1.30;;;1.60;99.90;;;;;;4886106;29;20305;-68
2023/03/10 08:30:22;;;;;;;8.68;2.03;;;1.60;99.90;;;;;;4889219;29;20326;-68
2023/03/10 08:32:49;;;;;;;3.42;3.22;;;1.60;99.90;;;;;;4887779;29;20591;-68
2023/03/10 08:35:15;;;;;;;5.75;5.22;;;1.60;99.90;;;;;;4885389;29;20211;-68
2023/03/10 08:37:42;;;;;;;2.85;2.65;;;1.70;99.90;;;;;;4888763;29;20620;-68
2023/03/10 08:40:11;;;;;;;3.20;3.00;;;1.70;99.90;;;;;;4894835;29;20237;-68
2023/03/10 08:42:38;;;;;;;5.15;4.55;;;1.60;99.90;;;;;;4892543;29;20687;-68
2023/03/10 08:45:07;;;;;;;5.15;4.95;;;1.70;99.90;;;;;;4893283;29;20224;-68
2023/03/10 08:47:34;;;;;;;0.98;0.98;;;1.70;99.90;;;;;;4889830;29;20631;-67
2023/03/10 08:50:01;;;;;;;1.65;1.65;;;1.60;99.90;;;;;;4889748;29;20219;-67
2023/03/10 08:52:27;;;;;;;4.38;4.05;;;1.60;99.90;;;;;;4886479;29;20235;-68
2023/03/10 08:54:54;;;;;;;3.50;2.15;;;1.70;99.90;;;;;;4888774;29;20215;-67
2023/03/10 08:57:21;;;;;;;13.00;2.83;;;1.70;99.90;;;;;;4889923;29;20204;-68
2023/03/10 08:59:47;;;;;;;4.15;3.95;;;1.70;99.90;;;;;;4882420;29;20214;-68
2023/03/10 09:02:16;;;;;;;3.80;2.13;;;1.70;99.90;;;;;;4887728;29;20341;-68
2023/03/10 09:04:43;;;;;;;2.95;2.35;;;1.70;99.90;;;;;;4884931;29;20212;-69
2023/03/10 09:07:10;;;;;;;2.65;2.08;;;1.70;99.90;;;;;;4894186;29;20333;-69
2023/03/10 09:09:36;;;;;;;4.55;3.00;;;1.70;99.90;;;;;;4892010;29;20211;-69
2023/03/10 09:12:04;;;;;;;2.72;2.17;;;1.70;99.90;;;;;;4890815;29;21511;-68
2023/03/10 09:14:30;;;;;;;4.03;2.35;;;1.60;99.90;;;;;;4878272;29;20216;-68
2023/03/10 09:16:57;;;;;;;4.88;3.50;;;1.60;99.90;;;;;;4894021;29;20526;-68
2023/03/10 09:19:25;;;;;;;4.53;2.38;;;1.60;99.90;;;;;;4884903;29;20219;-69
2023/03/10 09:21:52;;;;;;;0.63;0.63;;;1.60;99.90;;;;;;4890587;29;20763;-68
2023/03/10 09:24:19;;;;;;;4.72;4.43;;;1.60;99.90;;;;;;4882043;29;20625;-68
2023/03/10 09:26:46;;;;;;;1.85;1.77;;;1.60;99.90;;;;;;4893255;29;20223;-69
2023/03/10 09:29:12;;;;;;;3.08;2.95;;;1.50;99.90;;;;;;4886666;29;20288;-69
2023/03/10 09:31:39;;;;;;;3.13;2.80;;;1.50;99.90;;;;;;4889181;29;20726;-69
2023/03/10 09:34:07;;;;;;;1.10;1.10;;;1.50;99.90;;;;;;4883391;29;20579;-69
2023/03/10 09:36:36;;;;;;;2.22;2.03;;;1.50;99.90;;;;;;4887419;29;20240;-69
2023/03/10 09:39:03;;;;;;;1.75;1.75;;;1.50;99.90;;;;;;4883478;29;20230;-69
2023/03/10 09:41:52;;;;;;;1.77;1.15;;;1.50;99.90;;;;;;4893740;29;20333;-69
2023/03/10 09:44:29;;;;;;;2.50;2.35;;;1.50;99.90;;;;;;4893374;29;20207;-70
2023/03/10 09:47:15;;;;;;;2.58;2.40;;;1.50;99.90;;;;;;4888236;29;20234;-69
2023/03/10 09:49:48;;;;;;;4.88;4.45;;;1.50;99.90;;;;;;4886415;29;20207;-70
2023/03/10 09:52:23;;;;;;;3.40;2.67;;;1.60;99.90;;;;;;4888307;29;20250;-69
2023/03/10 09:54:57;;;;;;;7.95;4.60;;;1.60;99.90;;;;;;4894133;29;20283;-69
2023/03/10 09:57:24;;;;;;;10.35;2.72;;;1.60;99.90;;;;;;4894014;29;20581;-69
2023/03/10 09:59:55;;;;;;;8.30;4.03;;;1.60;99.90;;;;;;4893403;29;20203;-69
2023/03/10 10:02:25;;;;;;;2.42;2.25;;;1.60;99.90;;;;;;4889976;29;20266;-69
2023/03/10 10:04:55;;;;;;;4.40;3.92;;;1.60;99.90;;;;;;4894039;29;20210;-69
2023/03/10 10:07:27;;;;;;;3.72;3.47;;;1.70;99.90;;;;;;4890813;29;20242;-69
2023/03/10 10:10:03;;;;;;;3.20;1.75;;;1.70;99.90;;;;;;4892199;29;20235;-69
2023/03/10 10:12:29;;;;;;;1.33;1.33;;;1.70;99.90;;;;;;4894174;29;20241;-69
2023/03/10 10:14:58;;;;;;;8.80;4.00;;;1.80;99.90;;;;;;4893236;29;20214;-69
2023/03/10 10:17:40;;;;;;;3.38;3.28;;;1.90;99.90;;;;;;4891207;29;20219;-69
2023/03/10 10:20:19;;;;;;;4.20;3.50;;;1.90;99.90;;;;;;4880764;29;20215;-69
2023/03/10 10:22:47;;;;;;;2.10;1.80;;;2.10;99.90;;;;;;4884805;29;20211;-69
2023/03/10 10:25:20;;;;;;;3.45;2.40;;;2.20;99.90;;;;;;4886323;29;20558;-69
2023/03/10 10:27:50;;;;;;;4.50;2.00;;;2.30;99.90;;;;;;4884818;29;20227;-69
2023/03/10 10:30:34;;;;;;;1.67;1.67;;;2.40;99.90;;;;;;4879345;29;20295;-70
2023/03/10 10:33:02;;;;;;;1.75;1.75;;;2.40;99.90;;;;;;4892341;29;20589;-69
2023/03/10 10:35:31;;;;;;;2.47;2.13;;;2.40;99.90;;;;;;4889793;29;20250;-69
2023/03/10 10:38:05;;;;;;;4.78;4.40;;;2.50;99.90;;;;;;4875556;29;20204;-69
2023/03/10 10:40:34;;;;;;;6.38;5.95;;;2.50;99.90;;;;;;4892953;29;20241;-68
2023/03/10 10:43:04;;;;;;;7.75;4.68;;;2.50;99.90;;;;;;4886596;29;20203;-68
2023/03/10 10:45:35;;;;;;;4.40;4.25;;;2.60;99.90;;;;;;4890983;29;20640;-68
2023/03/10 10:48:02;;;;;;;4.05;3.90;;;2.60;99.90;;;;;;4886830;29;20301;-69
2023/03/10 10:50:30;;;;;;;2.95;2.75;;;2.70;99.90;;;;;;4893044;29;20538;-68
2023/03/10 10:53:32;;;;;;;5.00;4.70;;;2.70;99.90;;;;;;4891996;29;20215;-69
2023/03/10 10:56:02;;;;;;;1.13;1.13;;;2.60;99.90;;;;;;4869592;29;20218;-69
2023/03/10 10:58:32;;;;;;;5.38;3.35;;;2.60;99.90;;;;;;4892735;29;20207;-69
2023/03/10 11:01:01;;;;;;;1.90;1.90;;;2.70;99.90;;;;;;4886597;29;20235;-70
2023/03/10 11:03:31;;;;;;;5.60;4.95;;;2.60;99.90;;;;;;4891269;29;20699;-70
2023/03/10 11:05:59;;;;;;;4.47;4.07;;;2.60;99.90;;;;;;4888622;29;20242;-70
2023/03/10 11:08:36;;;;;;;6.68;6.13;;;2.60;99.90;;;;;;4882702;29;20218;-70
2023/03/10 11:11:14;;;;;;;2.67;2.55;;;2.60;99.90;;;;;;4884779;29;20317;-70
2023/03/10 11:13:54;;;;;;;7.22;3.80;;;2.60;99.90;;;;;;4886350;29;20203;-70
2023/03/10 11:16:26;;;;;;;4.05;3.72;;;2.60;99.90;;;;;;4884423;29;20208;-71
2023/03/10 11:18:57;;;;;;;6.40;4.55;;;2.50;99.90;;;;;;4889299;29;20692;-69
2023/03/10 11:21:28;;;;;;;2.42;2.35;;;2.50;99.90;;;;;;4886533;29;20419;-70
2023/03/10 11:24:00;;;;;;;9.18;7.18;;;2.40;99.90;;;;;;4891972;29;20211;-69
2023/03/10 11:26:38;;;;;;;4.20;3.42;;;2.40;99.90;;;;;;4889907;29;20287;-69
2023/03/10 11:29:17;;;;;;;5.43;3.55;;;2.40;99.90;;;;;;4889669;29;20207;-69
2023/03/10 11:31:52;;;;;;;2.80;2.60;;;2.40;99.90;;;;;;4892339;29;20223;-69
2023/03/10 11:34:22;;;;;;;3.28;2.85;;;2.40;99.90;;;;;;4894834;29;20210;-69
2023/03/10 11:36:56;;;;;;;9.85;4.60;;;2.50;99.90;;;;;;4892869;29;20587;-69
2023/03/10 11:39:33;;;;;;;3.50;1.77;;;2.50;99.90;;;;;;4890693;29;20229;-69
2023/03/10 11:42:06;;;;;;;2.67;2.58;;;2.40;99.90;;;;;;4888794;29;20227;-70
2023/03/10 11:44:41;;;;;;;4.00;3.80;;;2.50;99.90;;;;;;4886706;29;20212;-69
2023/03/10 11:47:18;;;;;;;5.00;4.75;;;2.50;99.90;;;;;;4887404;29;20231;-70
2023/03/10 11:49:50;;;;;;;4.35;2.92;;;2.50;99.90;;;;;;4888537;29;20207;-69
2023/03/10 11:52:20;;;;;;;6.63;4.30;;;2.50;99.90;;;;;;4882151;29;20697;-69
2023/03/10 11:54:50;;;;;;;1.77;1.67;;;2.40;99.90;;;;;;4892828;29;20238;-69
2023/03/10 11:57:18;;;;;;;2.30;2.08;;;2.40;99.90;;;;;;4886906;29;20212;-69
2023/03/10 11:59:50;;;;;;;6.70;4.78;;;2.40;99.90;;;;;;4891703;29;20299;-69
2023/03/10 12:02:23;;;;;;;6.07;5.40;;;2.40;99.90;;;;;;4892274;29;20587;-69
2023/03/10 12:04:53;;;;;;;4.60;4.40;;;2.40;99.90;;;;;;4892286;29;20222;-69
2023/03/10 12:07:25;;;;;;;0.75;0.75;;;2.40;99.90;;;;;;4881657;29;20236;-69
2023/03/10 12:09:56;;;;;;;7.15;4.00;;;2.40;99.90;;;;;;4889381;29;20204;-68
2023/03/10 12:12:28;;;;;;;10.63;4.30;;;2.40;99.90;;;;;;4890383;29;20231;-68
2023/03/10 12:14:57;;;;;;;1.80;1.80;;;2.40;99.90;;;;;;4894426;29;20216;-69
2023/03/10 12:17:23;;;;;;;8.77;4.78;;;2.40;99.90;;;;;;4885237;29;20205;-69
2023/03/10 12:20:29;;;;;;;9.90;5.72;;;2.40;99.90;;;;;;4888605;29;20207;-69
2023/03/10 12:22:56;;;;;;;10.60;5.55;;;2.40;99.90;;;;;;4892306;29;20912;-69
2023/03/10 12:25:44;;;;;;;8.13;6.03;;;2.40;99.90;;;;;;4894662;29;20318;-69
2023/03/10 12:28:21;;;;;;;1.20;1.20;;;2.40;99.90;;;;;;4886773;29;20239;-70
2023/03/10 12:30:50;;;;;;;4.35;4.05;;;2.40;99.90;;;;;;4894932;29;20267;-69
2023/03/10 12:33:38;;;;;;;7.78;5.22;;;2.50;99.90;;;;;;4898877;29;20218;-69
2023/03/10 12:36:09;;;;;;;6.53;5.88;;;2.60;99.90;;;;;;4893718;29;20204;-69
2023/03/10 12:38:41;;;;;;;3.45;3.15;;;2.60;99.90;;;;;;4883770;29;20223;-69
2023/03/10 12:41:10;;;;;;;12.18;4.68;;;2.60;99.90;;;;;;4897971;29;20236;-69
2023/03/10 12:43:51;;;;;;;2.60;2.40;;;2.60;99.90;;;;;;4891994;29;21108;-69
2023/03/10 12:46:22;;;;;;;4.97;4.68;;;2.70;99.90;;;;;;4886924;29;20213;-69
2023/03/10 12:49:00;;;;;;;10.27;5.25;;;2.70;99.90;;;;;;4887751;29;20211;-70
2023/03/10 12:51:29;;;;;;;3.45;2.80;;;2.60;99.90;;;;;;4892994;29;20230;-69
2023/03/10 12:54:02;;;;;;;4.88;3.05;;;2.60;99.90;;;;;;4878324;29;22026;-68
2023/03/10 12:56:38;;;;;;;5.63;5.13;;;2.60;99.90;;;;;;4892312;29;20648;-69
2023/03/10 12:59:13;;;;;;;4.35;4.22;;;2.60;99.90;;;;;;4887158;29;20569;-69
2023/03/10 13:01:44;;;;;;;5.32;4.80;;;2.50;99.90;;;;;;4891079;29;20245;-68
2023/03/10 13:04:17;;;;;;;7.57;6.93;;;2.60;99.90;;;;;;4888131;29;20207;-68
2023/03/10 13:06:45;;;;;;;2.25;2.15;;;2.50;99.90;;;;;;4885659;29;20677;-70
2023/03/10 13:09:23;;;;;;;4.97;4.18;;;2.50;99.90;;;;;;4890706;29;20211;-69
2023/03/10 13:11:54;;;;;;;4.60;4.22;;;2.50;99.90;;;;;;4881735;29;20249;-68
2023/03/10 13:14:23;;;;;;;3.60;3.22;;;2.50;99.90;;;;;;4882993;29;20217;-69
2023/03/10 13:16:53;;;;;;;6.18;3.35;;;2.50;99.90;;;;;;4887305;29;20231;-68
2023/03/10 13:19:21;;;;;;;5.35;2.38;;;2.50;99.90;;;;;;4883014;29;20211;-68
2023/03/10 13:21:49;;;;;;;7.78;5.03;;;2.40;99.90;;;;;;4887073;29;20742;-68
2023/03/10 13:24:24;;;;;;;6.55;5.80;;;2.40;99.90;;;;;;4888258;29;20587;-69
2023/03/10 13:27:04;;;;;;;1.42;1.33;;;2.50;99.90;;;;;;4886053;29;20235;-68
2023/03/10 13:29:31;;;;;;;5.75;1.77;;;2.50;99.90;;;;;;4886541;29;20222;-68
2023/03/10 13:31:58;;;;;;;2.60;2.40;;;2.40;99.90;;;;;;4893399;29;20227;-68
2023/03/10 13:34:30;;;;;;;4.65;3.47;;;2.40;99.90;;;;;;4885967;29;20688;-68
2023/03/10 13:37:05;;;;;;;4.75;3.40;;;2.40;99.90;;;;;;4885632;29;20212;-68
2023/03/10 13:39:32;;;;;;;3.60;2.20;;;2.40;99.90;;;;;;4885066;29;20211;-68
2023/03/10 13:42:01;;;;;;;4.93;4.50;;;2.50;99.90;;;;;;4894634;29;20227;-68
2023/03/10 13:44:33;;;;;;;6.90;3.80;;;2.50;99.90;;;;;;4890503;29;20644;-68
2023/03/10 13:47:03;;;;;;;2.08;1.48;;;2.60;99.90;;;;;;4882883;29;20251;-68
2023/03/10 13:49:34;;;;;;;7.63;3.10;;;2.50;99.90;;;;;;4884571;29;20532;-68
2023/03/10 13:52:03;;;;;;;2.40;2.28;;;2.50;99.90;;;;;;4887830;29;20228;-68
2023/03/10 13:54:32;;;;;;;5.55;4.35;;;2.50;99.90;;;;;;4877692;29;20234;-68
2023/03/10 13:57:07;;;;;;;8.80;3.50;;;2.50;99.90;;;;;;4893823;29;20203;-67
2023/03/10 13:59:36;;;;;;;8.77;4.97;;;2.50;99.90;;;;;;4884725;29;20221;-67
2023/03/10 14:02:04;;;;;;;5.10;4.88;;;2.50;99.90;;;;;;4888739;29;20242;-67
2023/03/10 14:04:43;;;;;;;2.00;1.90;;;2.60;99.90;;;;;;4885107;29;20222;-68
2023/03/10 14:07:12;;;;;;;11.25;5.25;;;2.60;99.90;;;;;;4885110;29;20333;-68
2023/03/10 14:09:39;;;;;;;6.00;5.50;;;2.60;99.90;;;;;;4893308;29;20233;-68
2023/03/10 14:12:07;;;;;;;11.90;4.03;;;2.50;99.90;;;;;;4886877;29;20603;-68
2023/03/10 14:14:37;;;;;;;2.00;1.90;;;2.50;99.90;;;;;;4888121;29;20215;-68
2023/03/10 14:17:06;;;;;;;3.22;2.97;;;2.50;99.90;;;;;;4888581;29;20298;-68
2023/03/10 14:19:38;;;;;;;6.47;3.67;;;2.50;99.90;;;;;;4882911;29;20211;-68
2023/03/10 14:22:20;;;;;;;2.67;2.58;;;2.50;99.90;;;;;;4890015;29;20230;-69
2023/03/10 14:24:47;;;;;;;5.20;3.10;;;2.50;99.90;;;;;;4889818;29;20242;-69
2023/03/10 14:27:14;;;;;;;6.13;4.82;;;2.50;99.90;;;;;;4891826;29;20227;-68
2023/03/10 14:29:48;;;;;;;2.53;2.47;;;2.50;99.90;;;;;;4891216;29;20670;-68
2023/03/10 14:32:15;;;;;;;5.70;5.43;;;2.50;99.90;;;;;;4885499;29;20243;-68
2023/03/10 14:34:42;;;;;;;1.92;1.90;;;2.50;99.90;;;;;;4888241;29;20223;-68
2023/03/10 14:37:08;;;;;;;2.83;2.03;;;2.50;99.90;;;;;;4879730;29;20207;-68
2023/03/10 14:39:35;;;;;;;6.03;4.57;;;2.50;99.90;;;;;;4884699;29;20215;-68
2023/03/10 14:42:02;;;;;;;2.70;2.47;;;2.40;99.90;;;;;;4884282;29;20596;-68
2023/03/10 14:44:29;;;;;;;4.00;3.45;;;2.40;99.90;;;;;;4878363;29;20665;-66
2023/03/10 14:46:58;;;;;;;3.65;2.90;;;2.40;99.90;;;;;;4887177;29;20216;-68
2023/03/10 14:49:27;;;;;;;4.70;1.90;;;2.40;99.90;;;;;;4882657;29;20218;-68
2023/03/10 14:51:53;;;;;;;1.58;1.48;;;2.40;99.90;;;;;;4886991;29;20238;-68
2023/03/10 14:54:22;;;;;;;5.13;4.82;;;2.40;99.90;;;;;;4893846;29;20218;-68
2023/03/10 14:56:52;;;;;;;1.38;1.38;;;2.40;99.90;;;;;;4892833;29;20735;-68
2023/03/10 14:59:19;;;;;;;2.95;2.80;;;2.40;99.90;;;;;;4886700;29;20228;-68
2023/03/10 15:01:46;;;;;;;2.13;1.92;;;2.40;99.90;;;;;;4894718;29;20322;-68
2023/03/10 15:04:15;;;;;;;2.53;2.42;;;2.40;99.90;;;;;;4882727;29;20219;-68
2023/03/10 15:06:42;;;;;;;5.32;3.53;;;2.30;99.90;;;;;;4890132;29;20600;-68
2023/03/10 15:09:09;;;;;;;4.03;3.83;;;2.30;99.90;;;;;;4888904;29;20226;-68
2023/03/10 15:11:37;;;;;;;5.28;3.88;;;2.30;99.90;;;;;;4898172;29;20307;-69
2023/03/10 15:14:10;;;;;;;2.22;1.88;;;2.30;99.90;;;;;;4898185;29;20518;-69
2023/03/10 15:16:37;;;;;;;3.22;3.03;;;2.30;99.90;;;;;;4880324;29;20242;-69
2023/03/10 15:19:03;;;;;;;2.35;2.25;;;2.30;99.90;;;;;;4891448;29;20210;-67
2023/03/10 15:21:31;;;;;;;2.17;2.15;;;2.30;99.90;;;;;;4891908;29;20565;-68
2023/03/10 15:23:58;;;;;;;6.50;4.25;;;2.30;99.90;;;;;;4887513;29;20214;-68
2023/03/10 15:26:25;;;;;;;4.43;2.63;;;2.30;99.90;;;;;;4898105;29;20688;-68
2023/03/10 15:28:51;;;;;;;1.50;1.40;;;2.30;99.90;;;;;;4890791;29;20220;-68
2023/03/10 15:31:18;;;;;;;1.17;1.17;;;2.20;99.90;;;;;;4890965;29;20232;-68
2023/03/10 15:33:45;;;;;;;0.85;0.85;;;2.20;99.90;;;;;;4887155;29;20219;-68
2023/03/10 15:36:11;;;;;;;2.35;1.13;;;2.20;99.90;;;;;;4898164;29;20528;-68
2023/03/10 15:38:40;;;;;;;2.55;1.30;;;2.20;99.90;;;;;;4895057;29;20211;-68
2023/03/10 15:41:07;;;;;;;1.80;1.70;;;2.20;99.90;;;;;;4882107;29;20240;-68
2023/03/10 15:43:34;;;;;;;3.97;3.58;;;2.20;99.90;;;;;;4893512;29;20319;-68
2023/03/10 15:46:05;;;;;;;2.42;2.33;;;2.20;99.90;;;;;;4893560;29;20215;-68
2023/03/10 15:48:32;;;;;;;11.23;3.60;;;2.20;99.90;;;;;;4887169;29;20235;-68
2023/03/10 15:50:59;;;;;;;6.53;5.38;;;2.20;99.90;;;;;;4885329;29;20228;-68
2023/03/10 15:53:26;;;;;;;7.90;4.85;;;2.20;99.90;;;;;;4887270;29;20207;-68
2023/03/10 15:55:55;;;;;;;5.97;5.47;;;2.20;99.90;;;;;;4886084;29;20203;-69
2023/03/10 15:58:22;;;;;;;6.00;4.65;;;2.30;99.90;;;;;;4881590;29;20231;-68
2023/03/10 16:00:48;;;;;;;4.30;3.28;;;2.20;99.90;;;;;;4896125;29;20238;-68
2023/03/10 16:03:15;;;;;;;4.68;2.65;;;2.20;99.90;;;;;;4897199;29;20222;-68
2023/03/10 16:05:47;;;;;;;2.47;2.38;;;2.20;99.90;;;;;;4897760;29;20294;-68
2023/03/10 16:08:14;;;;;;;5.45;2.55;;;2.10;99.90;;;;;;4894771;29;20231;-68
2023/03/10 16:10:49;;;;;;;7.50;4.35;;;2.10;99.90;;;;;;4887751;29;20234;-68
2023/03/10 16:13:17;;;;;;;4.63;2.58;;;2.10;99.90;;;;;;4894882;29;20553;-68
2023/03/10 16:15:44;;;;;;;2.90;1.00;;;2.10;99.90;;;;;;4894210;29;20204;-68
2023/03/10 16:18:11;;;;;;;4.45;4.03;;;2.10;99.90;;;;;;4878751;29;20212;-68
2023/03/10 16:20:38;;;;;;;5.40;4.90;;;2.10;99.90;;;;;;4893362;29;20227;-68
2023/03/10 16:23:04;;;;;;;4.18;3.97;;;2.10;99.90;;;;;;4891414;29;20208;-68
2023/03/10 16:25:31;;;;;;;6.05;5.78;;;2.10;99.90;;;;;;4886075;29;20211;-68
2023/03/10 16:27:58;;;;;;;2.63;2.50;;;2.00;99.90;;;;;;4878423;29;20247;-68
2023/03/10 16:30:26;;;;;;;4.90;4.40;;;2.00;99.90;;;;;;4893958;29;20211;-68
2023/03/10 16:32:52;;;;;;;2.28;2.13;;;2.00;99.90;;;;;;4892158;29;20211;-68
2023/03/10 16:35:19;;;;;;;3.80;2.20;;;2.00;99.90;;;;;;4894326;29;20806;-68
2023/03/10 16:37:47;;;;;;;2.67;2.50;;;2.00;99.90;;;;;;4894018;29;20246;-68
2023/03/10 16:40:14;;;;;;;2.60;2.33;;;2.00;99.90;;;;;;4886096;29;20688;-68
2023/03/10 16:42:44;;;;;;;4.90;3.75;;;2.00;99.90;;;;;;4893464;29;20243;-68
2023/03/10 16:45:11;;;;;;;3.22;2.90;;;2.00;99.90;;;;;;4890119;29;20316;-68
2023/03/10 16:47:39;;;;;;;4.97;3.28;;;2.00;99.90;;;;;;4885841;29;20566;-68
2023/03/10 16:50:07;;;;;;;5.25;4.78;;;2.00;99.90;;;;;;4890278;29;20243;-69
2023/03/10 16:52:39;;;;;;;2.55;2.38;;;2.00;99.90;;;;;;4896842;29;20234;-68
2023/03/10 16:55:08;;;;;;;4.85;4.45;;;2.00;99.90;;;;;;4886926;29;20639;-69
2023/03/10 16:57:35;;;;;;;3.47;3.03;;;2.00;99.90;;;;;;4885738;29;20216;-69
2023/03/10 17:00:04;;;;;;;4.88;4.57;;;2.00;99.90;;;;;;4895855;29;20207;-69
2023/03/10 17:02:30;;;;;;;5.00;3.20;;;2.00;99.90;;;;;;4888526;29;20314;-69
2023/03/10 17:04:58;;;;;;;3.25;3.15;;;2.00;99.90;;;;;;4891680;29;20315;-69
2023/03/10 17:07:25;;;;;;;6.65;3.28;;;1.90;99.90;;;;;;4889759;29;20564;-69
2023/03/10 17:09:52;;;;;;;2.22;1.95;;;1.90;99.90;;;;;;4895616;29;20227;-69
2023/03/10 17:12:19;;;;;;;5.25;5.00;;;2.00;99.90;;;;;;4890993;29;20258;-70
2023/03/10 17:14:45;;;;;;;6.60;3.00;;;2.00;99.90;;;;;;4889950;29;20204;-69
2023/03/10 17:17:12;;;;;;;3.00;2.42;;;2.00;99.90;;;;;;4893500;29;20578;-69
2023/03/10 17:19:39;;;;;;;9.52;3.35;;;1.90;99.90;;;;;;4890749;29;20208;-69
2023/03/10 17:22:07;;;;;;;2.35;2.15;;;1.90;99.90;;;;;;4896885;29;20227;-69
2023/03/10 17:24:34;;;;;;;1.55;1.50;;;1.90;99.90;;;;;;4893509;29;20219;-69
2023/03/10 17:27:01;;;;;;;3.88;3.47;;;1.90;99.90;;;;;;4896449;29;20219;-69
2023/03/10 17:29:27;;;;;;;12.40;3.72;;;1.90;99.90;;;;;;4888081;29;20707;-69
2023/03/10 17:31:54;;;;;;;1.95;1.95;;;1.90;99.90;;;;;;4896525;29;20227;-69
2023/03/10 17:34:21;;;;;;;2.22;2.15;;;1.90;99.90;;;;;;4890023;29;20215;-69
2023/03/10 17:36:50;;;;;;;3.67;3.42;;;1.90;99.90;;;;;;4892232;29;20689;-69
2023/03/10 17:39:19;;;;;;;4.28;4.25;;;1.90;99.90;;;;;;4884635;29;20218;-69
2023/03/10 17:41:46;;;;;;;4.53;4.03;;;1.90;99.90;;;;;;4886184;29;20231;-70
2023/03/10 17:44:13;;;;;;;8.73;2.95;;;1.80;99.90;;;;;;4887184;29;20215;-71
2023/03/10 17:46:40;;;;;;;2.17;2.08;;;1.80;99.90;;;;;;4888617;29;20203;-70
2023/03/10 17:49:08;;;;;;;4.18;1.85;;;1.80;99.90;;;;;;4893870;29;20227;-68
2023/03/10 17:51:35;;;;;;;4.32;3.22;;;1.80;99.90;;;;;;4896327;29;20231;-69
2023/03/10 17:54:02;;;;;;;5.90;3.03;;;1.80;99.90;;;;;;4888224;29;20203;-70
2023/03/10 17:56:30;;;;;;;6.05;2.25;;;1.70;99.90;;;;;;4877537;29;20243;-69
2023/03/10 17:58:58;;;;;;;3.15;2.88;;;1.70;99.90;;;;;;4884814;29;20199;-69
2023/03/10 18:01:27;;;;;;;2.00;1.90;;;1.70;99.90;;;;;;4889538;29;20246;-69
2023/03/10 18:03:54;;;;;;;3.28;3.13;;;1.70;99.90;;;;;;4888458;29;20218;-69
2023/03/10 18:06:24;;;;;;;2.17;2.17;;;1.70;99.90;;;;;;4895251;29;20208;-69
2023/03/10 18:08:52;;;;;;;5.55;5.07;;;1.70;99.90;;;;;;4886015;29;20235;-69